sensor_id;sensor_type;location;lat;lon;timestamp;temperature;humidity
5192;DHT22;2615;44.524;11.284;2023-04-24T00:01:49;17.90;45.50
5192;DHT22;2615;44.524;11.284;2023-04-24T00:04:18;17.90;45.60
5192;DHT22;2615;44.524;11.284;2023-04-24T00:06:46;17.90;45.70
5192;DHT22;2615;44.524;11.284;2023-04-24T00:09:20;17.90;45.90
5192;DHT22;2615;44.524;11.284;2023-04-24T00:11:48;17.90;46.00
5192;DHT22;2615;44.524;11.284;2023-04-24T00:14:17;17.90;46.20
5192;DHT22;2615;44.524;11.284;2023-04-24T00:16:45;17.90;46.40
5192;DHT22;2615;44.524;11.284;2023-04-24T00:19:13;17.80;46.40
5192;DHT22;2615;44.524;11.284;2023-04-24T00:21:42;17.80;46.60
5192;DHT22;2615;44.524;11.284;2023-04-24T00:24:10;17.80;46.70
5192;DHT22;2615;44.524;11.284;2023-04-24T00:26:38;17.70;46.80
5192;DHT22;2615;44.524;11.284;2023-04-24T00:29:06;17.70;46.90
5192;DHT22;2615;44.524;11.284;2023-04-24T00:31:35;17.70;47.10
5192;DHT22;2615;44.524;11.284;2023-04-24T00:34:04;17.70;47.20
5192;DHT22;2615;44.524;11.284;2023-04-24T00:36:33;17.70;47.40
5192;DHT22;2615;44.524;11.284;2023-04-24T00:39:01;17.60;47.40
5192;DHT22;2615;44.524;11.284;2023-04-24T00:41:30;17.60;47.60
5192;DHT22;2615;44.524;11.284;2023-04-24T00:43:58;17.60;47.70
5192;DHT22;2615;44.524;11.284;2023-04-24T00:46:26;17.60;47.80
5192;DHT22;2615;44.524;11.284;2023-04-24T00:48:56;17.60;48.00
5192;DHT22;2615;44.524;11.284;2023-04-24T00:51:25;17.60;48.10
5192;DHT22;2615;44.524;11.284;2023-04-24T00:53:54;17.60;48.20
5192;DHT22;2615;44.524;11.284;2023-04-24T00:56:22;17.50;48.20
5192;DHT22;2615;44.524;11.284;2023-04-24T00:58:50;17.50;48.30
5192;DHT22;2615;44.524;11.284;2023-04-24T01:01:19;17.50;48.40
5192;DHT22;2615;44.524;11.284;2023-04-24T01:03:49;17.50;48.50
5192;DHT22;2615;44.524;11.284;2023-04-24T01:06:20;17.40;48.50
5192;DHT22;2615;44.524;11.284;2023-04-24T01:08:49;17.40;48.70
5192;DHT22;2615;44.524;11.284;2023-04-24T01:11:18;17.30;48.70
5192;DHT22;2615;44.524;11.284;2023-04-24T01:13:47;17.30;48.90
5192;DHT22;2615;44.524;11.284;2023-04-24T01:16:15;17.30;49.00
5192;DHT22;2615;44.524;11.284;2023-04-24T01:18:44;17.30;49.20
5192;DHT22;2615;44.524;11.284;2023-04-24T01:21:13;17.20;49.20
5192;DHT22;2615;44.524;11.284;2023-04-24T01:23:45;17.20;49.30
5192;DHT22;2615;44.524;11.284;2023-04-24T01:26:15;17.10;49.40
5192;DHT22;2615;44.524;11.284;2023-04-24T01:28:43;17.10;49.50
5192;DHT22;2615;44.524;11.284;2023-04-24T01:31:11;17.10;49.60
5192;DHT22;2615;44.524;11.284;2023-04-24T01:33:41;17.00;49.70
5192;DHT22;2615;44.524;11.284;2023-04-24T01:36:10;17.00;49.80
5192;DHT22;2615;44.524;11.284;2023-04-24T01:38:39;17.00;50.00
5192;DHT22;2615;44.524;11.284;2023-04-24T01:41:08;17.00;50.00
5192;DHT22;2615;44.524;11.284;2023-04-24T01:43:37;17.00;50.10
5192;DHT22;2615;44.524;11.284;2023-04-24T01:46:06;17.00;50.10
5192;DHT22;2615;44.524;11.284;2023-04-24T01:48:34;17.00;50.20
5192;DHT22;2615;44.524;11.284;2023-04-24T01:51:03;17.00;50.30
5192;DHT22;2615;44.524;11.284;2023-04-24T01:53:31;17.00;50.30
5192;DHT22;2615;44.524;11.284;2023-04-24T01:55:59;17.00;50.40
5192;DHT22;2615;44.524;11.284;2023-04-24T01:58:29;17.00;50.50
5192;DHT22;2615;44.524;11.284;2023-04-24T02:00:58;17.00;50.60
5192;DHT22;2615;44.524;11.284;2023-04-24T02:03:27;17.00;50.70
5192;DHT22;2615;44.524;11.284;2023-04-24T02:05:55;17.00;50.90
5192;DHT22;2615;44.524;11.284;2023-04-24T02:08:23;17.00;51.00
5192;DHT22;2615;44.524;11.284;2023-04-24T02:10:52;17.00;51.10
5192;DHT22;2615;44.524;11.284;2023-04-24T02:13:20;17.00;51.30
5192;DHT22;2615;44.524;11.284;2023-04-24T02:15:49;17.00;51.50
5192;DHT22;2615;44.524;11.284;2023-04-24T02:18:17;17.00;52.20
5192;DHT22;2615;44.524;11.284;2023-04-24T02:20:45;17.00;51.70
5192;DHT22;2615;44.524;11.284;2023-04-24T02:23:13;17.00;51.70
5192;DHT22;2615;44.524;11.284;2023-04-24T02:25:42;17.00;51.70
5192;DHT22;2615;44.524;11.284;2023-04-24T02:28:10;17.00;51.80
5192;DHT22;2615;44.524;11.284;2023-04-24T02:30:38;17.00;51.90
5192;DHT22;2615;44.524;11.284;2023-04-24T02:33:07;16.90;51.90
5192;DHT22;2615;44.524;11.284;2023-04-24T02:35:35;16.90;52.00
5192;DHT22;2615;44.524;11.284;2023-04-24T02:38:04;16.90;52.20
5192;DHT22;2615;44.524;11.284;2023-04-24T02:40:32;16.90;52.20
5192;DHT22;2615;44.524;11.284;2023-04-24T02:43:00;17.00;52.40
5192;DHT22;2615;44.524;11.284;2023-04-24T02:45:28;16.90;52.40
5192;DHT22;2615;44.524;11.284;2023-04-24T02:47:56;17.00;52.50
5192;DHT22;2615;44.524;11.284;2023-04-24T02:50:26;16.90;52.60
5192;DHT22;2615;44.524;11.284;2023-04-24T02:52:54;16.90;52.80
5192;DHT22;2615;44.524;11.284;2023-04-24T02:55:22;16.90;52.80
5192;DHT22;2615;44.524;11.284;2023-04-24T02:57:50;16.90;53.00
5192;DHT22;2615;44.524;11.284;2023-04-24T03:00:18;16.90;53.10
5192;DHT22;2615;44.524;11.284;2023-04-24T03:02:46;16.90;53.40
5192;DHT22;2615;44.524;11.284;2023-04-24T03:05:16;16.90;53.50
5192;DHT22;2615;44.524;11.284;2023-04-24T03:07:45;16.90;53.60
5192;DHT22;2615;44.524;11.284;2023-04-24T03:10:14;16.80;53.60
5192;DHT22;2615;44.524;11.284;2023-04-24T03:12:42;16.90;53.90
5192;DHT22;2615;44.524;11.284;2023-04-24T03:15:10;16.90;54.10
5192;DHT22;2615;44.524;11.284;2023-04-24T03:17:38;16.80;54.20
5192;DHT22;2615;44.524;11.284;2023-04-24T03:20:08;16.90;54.30
5192;DHT22;2615;44.524;11.284;2023-04-24T03:22:36;16.80;54.50
5192;DHT22;2615;44.524;11.284;2023-04-24T03:25:06;16.80;54.70
5192;DHT22;2615;44.524;11.284;2023-04-24T03:27:36;16.80;54.90
5192;DHT22;2615;44.524;11.284;2023-04-24T03:30:05;16.70;55.20
5192;DHT22;2615;44.524;11.284;2023-04-24T03:32:33;16.70;55.60
5192;DHT22;2615;44.524;11.284;2023-04-24T03:35:02;16.70;55.90
5192;DHT22;2615;44.524;11.284;2023-04-24T03:37:30;16.60;56.10
5192;DHT22;2615;44.524;11.284;2023-04-24T03:39:58;16.60;56.40
5192;DHT22;2615;44.524;11.284;2023-04-24T03:42:27;16.60;56.60
5192;DHT22;2615;44.524;11.284;2023-04-24T03:44:55;16.50;56.80
5192;DHT22;2615;44.524;11.284;2023-04-24T03:47:24;16.50;57.00
5192;DHT22;2615;44.524;11.284;2023-04-24T03:49:52;16.40;57.00
5192;DHT22;2615;44.524;11.284;2023-04-24T03:52:21;16.40;57.20
5192;DHT22;2615;44.524;11.284;2023-04-24T03:54:49;16.40;57.40
5192;DHT22;2615;44.524;11.284;2023-04-24T03:57:17;16.40;57.50
5192;DHT22;2615;44.524;11.284;2023-04-24T04:02:15;16.40;57.30
5192;DHT22;2615;44.524;11.284;2023-04-24T04:04:43;16.30;57.90
5192;DHT22;2615;44.524;11.284;2023-04-24T04:07:12;16.30;58.00
5192;DHT22;2615;44.524;11.284;2023-04-24T04:09:40;16.30;58.10
5192;DHT22;2615;44.524;11.284;2023-04-24T04:12:08;16.30;58.20
5192;DHT22;2615;44.524;11.284;2023-04-24T04:14:36;16.20;58.10
5192;DHT22;2615;44.524;11.284;2023-04-24T04:17:06;16.20;58.10
5192;DHT22;2615;44.524;11.284;2023-04-24T04:19:34;16.10;58.10
5192;DHT22;2615;44.524;11.284;2023-04-24T04:22:02;16.10;58.10
5192;DHT22;2615;44.524;11.284;2023-04-24T04:24:30;16.00;58.20
5192;DHT22;2615;44.524;11.284;2023-04-24T04:26:59;16.00;58.30
5192;DHT22;2615;44.524;11.284;2023-04-24T04:29:27;15.90;58.20
5192;DHT22;2615;44.524;11.284;2023-04-24T04:31:55;15.90;58.20
5192;DHT22;2615;44.524;11.284;2023-04-24T04:34:25;15.90;58.30
5192;DHT22;2615;44.524;11.284;2023-04-24T04:36:53;15.90;58.30
5192;DHT22;2615;44.524;11.284;2023-04-24T04:39:21;15.80;58.30
5192;DHT22;2615;44.524;11.284;2023-04-24T04:41:49;15.80;58.30
5192;DHT22;2615;44.524;11.284;2023-04-24T04:44:17;15.80;58.30
5192;DHT22;2615;44.524;11.284;2023-04-24T04:46:45;15.80;58.30
5192;DHT22;2615;44.524;11.284;2023-04-24T04:49:14;15.80;58.40
5192;DHT22;2615;44.524;11.284;2023-04-24T04:51:44;15.70;58.40
5192;DHT22;2615;44.524;11.284;2023-04-24T04:54:13;15.70;58.40
5192;DHT22;2615;44.524;11.284;2023-04-24T04:56:42;15.70;58.50
5192;DHT22;2615;44.524;11.284;2023-04-24T04:59:10;15.60;58.40
5192;DHT22;2615;44.524;11.284;2023-04-24T05:01:39;15.60;58.50
5192;DHT22;2615;44.524;11.284;2023-04-24T05:04:07;15.60;58.60
5192;DHT22;2615;44.524;11.284;2023-04-24T05:06:35;15.60;58.70
5192;DHT22;2615;44.524;11.284;2023-04-24T05:09:05;15.60;58.70
5192;DHT22;2615;44.524;11.284;2023-04-24T05:11:34;15.60;58.80
5192;DHT22;2615;44.524;11.284;2023-04-24T05:14:02;15.70;58.80
5192;DHT22;2615;44.524;11.284;2023-04-24T05:16:30;15.70;58.90
5192;DHT22;2615;44.524;11.284;2023-04-24T05:18:58;15.70;58.90
5192;DHT22;2615;44.524;11.284;2023-04-24T05:21:26;15.70;58.90
5192;DHT22;2615;44.524;11.284;2023-04-24T05:23:54;15.70;58.90
5192;DHT22;2615;44.524;11.284;2023-04-24T05:28:52;15.70;58.60
5192;DHT22;2615;44.524;11.284;2023-04-24T05:31:20;15.70;59.10
5192;DHT22;2615;44.524;11.284;2023-04-24T05:33:49;15.70;59.20
5192;DHT22;2615;44.524;11.284;2023-04-24T05:36:17;15.70;59.20
5192;DHT22;2615;44.524;11.284;2023-04-24T05:38:45;15.70;59.30
5192;DHT22;2615;44.524;11.284;2023-04-24T05:41:13;15.70;59.40
5192;DHT22;2615;44.524;11.284;2023-04-24T05:43:43;15.70;59.50
5192;DHT22;2615;44.524;11.284;2023-04-24T05:46:11;15.70;59.50
5192;DHT22;2615;44.524;11.284;2023-04-24T05:48:40;15.70;59.60
5192;DHT22;2615;44.524;11.284;2023-04-24T05:51:09;15.70;59.70
5192;DHT22;2615;44.524;11.284;2023-04-24T05:53:37;15.70;59.80
5192;DHT22;2615;44.524;11.284;2023-04-24T05:56:06;15.70;59.80
5192;DHT22;2615;44.524;11.284;2023-04-24T05:58:34;15.70;59.80
5192;DHT22;2615;44.524;11.284;2023-04-24T06:01:03;15.70;59.80
5192;DHT22;2615;44.524;11.284;2023-04-24T06:03:31;15.70;59.90
5192;DHT22;2615;44.524;11.284;2023-04-24T06:06:00;15.70;60.00
5192;DHT22;2615;44.524;11.284;2023-04-24T06:08:28;15.80;60.20
5192;DHT22;2615;44.524;11.284;2023-04-24T06:10:56;15.80;60.30
5192;DHT22;2615;44.524;11.284;2023-04-24T06:13:24;15.80;60.30
5192;DHT22;2615;44.524;11.284;2023-04-24T06:15:53;15.80;60.40
5192;DHT22;2615;44.524;11.284;2023-04-24T06:18:22;15.80;60.50
5192;DHT22;2615;44.524;11.284;2023-04-24T06:20:51;15.80;60.70
5192;DHT22;2615;44.524;11.284;2023-04-24T06:23:19;15.90;60.80
5192;DHT22;2615;44.524;11.284;2023-04-24T06:25:47;15.90;60.90
5192;DHT22;2615;44.524;11.284;2023-04-24T06:28:16;16.00;61.00
5192;DHT22;2615;44.524;11.284;2023-04-24T06:30:49;16.00;61.20
5192;DHT22;2615;44.524;11.284;2023-04-24T06:33:17;16.00;61.20
5192;DHT22;2615;44.524;11.284;2023-04-24T06:35:49;16.10;61.20
5192;DHT22;2615;44.524;11.284;2023-04-24T06:38:17;16.10;61.30
5192;DHT22;2615;44.524;11.284;2023-04-24T06:40:45;16.20;61.40
5192;DHT22;2615;44.524;11.284;2023-04-24T06:43:13;16.20;61.50
5192;DHT22;2615;44.524;11.284;2023-04-24T06:45:41;16.30;61.70
5192;DHT22;2615;44.524;11.284;2023-04-24T06:48:11;16.30;61.70
5192;DHT22;2615;44.524;11.284;2023-04-24T06:50:39;16.40;61.90
5192;DHT22;2615;44.524;11.284;2023-04-24T06:53:08;16.40;61.80
5192;DHT22;2615;44.524;11.284;2023-04-24T06:55:37;16.50;61.70
5192;DHT22;2615;44.524;11.284;2023-04-24T06:58:06;16.50;61.70
5192;DHT22;2615;44.524;11.284;2023-04-24T07:00:34;16.60;61.70
5192;DHT22;2615;44.524;11.284;2023-04-24T07:03:03;16.60;61.60
5192;DHT22;2615;44.524;11.284;2023-04-24T07:05:32;16.70;61.80
5192;DHT22;2615;44.524;11.284;2023-04-24T07:08:01;16.80;61.80
5192;DHT22;2615;44.524;11.284;2023-04-24T07:10:32;16.80;61.70
5192;DHT22;2615;44.524;11.284;2023-04-24T07:13:02;17.00;61.70
5192;DHT22;2615;44.524;11.284;2023-04-24T07:15:30;17.00;61.50
5192;DHT22;2615;44.524;11.284;2023-04-24T07:17:59;17.10;61.50
5192;DHT22;2615;44.524;11.284;2023-04-24T07:20:31;17.20;61.40
5192;DHT22;2615;44.524;11.284;2023-04-24T07:23:00;17.30;61.30
5192;DHT22;2615;44.524;11.284;2023-04-24T07:25:28;17.30;61.10
5192;DHT22;2615;44.524;11.284;2023-04-24T07:27:57;17.40;61.10
5192;DHT22;2615;44.524;11.284;2023-04-24T07:30:25;17.40;60.90
5192;DHT22;2615;44.524;11.284;2023-04-24T07:32:55;17.30;60.70
5192;DHT22;2615;44.524;11.284;2023-04-24T07:35:24;17.40;60.80
5192;DHT22;2615;44.524;11.284;2023-04-24T07:37:53;17.30;60.70
5192;DHT22;2615;44.524;11.284;2023-04-24T07:40:21;17.30;60.70
5192;DHT22;2615;44.524;11.284;2023-04-24T07:42:50;17.30;60.70
5192;DHT22;2615;44.524;11.284;2023-04-24T07:45:19;17.30;60.70
5192;DHT22;2615;44.524;11.284;2023-04-24T07:47:47;17.30;60.70
5192;DHT22;2615;44.524;11.284;2023-04-24T07:50:15;17.30;60.70
5192;DHT22;2615;44.524;11.284;2023-04-24T07:52:43;17.30;60.70
5192;DHT22;2615;44.524;11.284;2023-04-24T07:55:12;17.40;60.70
5192;DHT22;2615;44.524;11.284;2023-04-24T07:57:40;17.40;60.70
5192;DHT22;2615;44.524;11.284;2023-04-24T08:00:09;17.50;60.80
5192;DHT22;2615;44.524;11.284;2023-04-24T08:02:38;17.60;60.70
5192;DHT22;2615;44.524;11.284;2023-04-24T08:05:07;17.70;60.60
5192;DHT22;2615;44.524;11.284;2023-04-24T08:07:36;17.80;60.30
5192;DHT22;2615;44.524;11.284;2023-04-24T08:10:05;17.90;60.10
5192;DHT22;2615;44.524;11.284;2023-04-24T08:12:33;18.00;60.00
5192;DHT22;2615;44.524;11.284;2023-04-24T08:15:01;18.20;59.90
5192;DHT22;2615;44.524;11.284;2023-04-24T08:17:29;18.30;59.60
5192;DHT22;2615;44.524;11.284;2023-04-24T08:19:59;18.40;59.90
5192;DHT22;2615;44.524;11.284;2023-04-24T08:22:28;18.50;59.20
5192;DHT22;2615;44.524;11.284;2023-04-24T08:24:57;18.60;59.10
5192;DHT22;2615;44.524;11.284;2023-04-24T08:27:26;18.70;58.90
5192;DHT22;2615;44.524;11.284;2023-04-24T08:29:55;18.80;58.70
5192;DHT22;2615;44.524;11.284;2023-04-24T08:32:26;18.90;58.60
5192;DHT22;2615;44.524;11.284;2023-04-24T08:34:59;19.10;58.50
5192;DHT22;2615;44.524;11.284;2023-04-24T08:37:27;19.20;58.40
5192;DHT22;2615;44.524;11.284;2023-04-24T08:39:56;19.20;58.10
5192;DHT22;2615;44.524;11.284;2023-04-24T08:42:24;19.20;58.00
5192;DHT22;2615;44.524;11.284;2023-04-24T08:44:53;19.30;58.20
5192;DHT22;2615;44.524;11.284;2023-04-24T08:47:23;19.30;58.20
5192;DHT22;2615;44.524;11.284;2023-04-24T08:49:54;19.30;58.10
5192;DHT22;2615;44.524;11.284;2023-04-24T08:52:23;19.40;58.10
5192;DHT22;2615;44.524;11.284;2023-04-24T08:54:55;19.40;58.00
5192;DHT22;2615;44.524;11.284;2023-04-24T08:57:25;19.60;58.20
5192;DHT22;2615;44.524;11.284;2023-04-24T08:59:54;19.80;58.20
5192;DHT22;2615;44.524;11.284;2023-04-24T09:02:23;19.90;57.90
5192;DHT22;2615;44.524;11.284;2023-04-24T09:04:52;19.90;57.60
5192;DHT22;2615;44.524;11.284;2023-04-24T09:07:23;19.90;57.40
5192;DHT22;2615;44.524;11.284;2023-04-24T09:09:53;19.90;57.20
5192;DHT22;2615;44.524;11.284;2023-04-24T09:12:22;19.90;57.00
5192;DHT22;2615;44.524;11.284;2023-04-24T09:14:50;19.90;56.80
5192;DHT22;2615;44.524;11.284;2023-04-24T09:17:19;19.80;56.80
5192;DHT22;2615;44.524;11.284;2023-04-24T09:19:50;19.80;56.80
5192;DHT22;2615;44.524;11.284;2023-04-24T09:22:18;19.70;56.90
5192;DHT22;2615;44.524;11.284;2023-04-24T09:24:47;19.50;56.90
5192;DHT22;2615;44.524;11.284;2023-04-24T09:27:16;19.30;57.10
5192;DHT22;2615;44.524;11.284;2023-04-24T09:29:54;19.20;57.40
5192;DHT22;2615;44.524;11.284;2023-04-24T09:32:23;19.20;57.70
5192;DHT22;2615;44.524;11.284;2023-04-24T09:35:05;19.10;57.60
5192;DHT22;2615;44.524;11.284;2023-04-24T09:37:38;19.10;57.70
5192;DHT22;2615;44.524;11.284;2023-04-24T09:40:14;19.00;57.50
5192;DHT22;2615;44.524;11.284;2023-04-24T09:42:44;18.90;57.50
5192;DHT22;2615;44.524;11.284;2023-04-24T09:45:13;18.90;57.70
5192;DHT22;2615;44.524;11.284;2023-04-24T09:47:42;18.90;57.80
5192;DHT22;2615;44.524;11.284;2023-04-24T09:50:12;18.90;57.70
5192;DHT22;2615;44.524;11.284;2023-04-24T09:52:43;18.90;57.50
5192;DHT22;2615;44.524;11.284;2023-04-24T09:55:17;18.90;57.50
5192;DHT22;2615;44.524;11.284;2023-04-24T09:57:52;19.00;57.60
5192;DHT22;2615;44.524;11.284;2023-04-24T10:00:25;19.10;57.50
5192;DHT22;2615;44.524;11.284;2023-04-24T10:02:58;19.30;57.50
5192;DHT22;2615;44.524;11.284;2023-04-24T10:05:31;19.50;57.40
5192;DHT22;2615;44.524;11.284;2023-04-24T10:08:04;19.80;57.40
5192;DHT22;2615;44.524;11.284;2023-04-24T10:10:39;20.10;57.00
5192;DHT22;2615;44.524;11.284;2023-04-24T10:13:09;20.40;56.40
5192;DHT22;2615;44.524;11.284;2023-04-24T10:15:38;20.50;56.00
5192;DHT22;2615;44.524;11.284;2023-04-24T10:18:07;20.50;55.70
5192;DHT22;2615;44.524;11.284;2023-04-24T10:20:37;20.40;55.60
5192;DHT22;2615;44.524;11.284;2023-04-24T10:23:06;20.60;55.80
5192;DHT22;2615;44.524;11.284;2023-04-24T10:25:36;20.80;55.80
5192;DHT22;2615;44.524;11.284;2023-04-24T10:28:04;21.10;55.50
5192;DHT22;2615;44.524;11.284;2023-04-24T10:30:36;21.30;55.20
5192;DHT22;2615;44.524;11.284;2023-04-24T10:33:06;21.60;55.10
5192;DHT22;2615;44.524;11.284;2023-04-24T10:35:38;22.00;54.90
5192;DHT22;2615;44.524;11.284;2023-04-24T10:38:09;22.40;54.60
5192;DHT22;2615;44.524;11.284;2023-04-24T10:40:41;22.80;54.10
5192;DHT22;2615;44.524;11.284;2023-04-24T10:43:09;23.00;53.70
5192;DHT22;2615;44.524;11.284;2023-04-24T10:45:38;23.20;53.30
5192;DHT22;2615;44.524;11.284;2023-04-24T10:48:07;23.50;52.90
5192;DHT22;2615;44.524;11.284;2023-04-24T10:50:45;23.70;52.50
5192;DHT22;2615;44.524;11.284;2023-04-24T10:53:15;23.80;52.20
5192;DHT22;2615;44.524;11.284;2023-04-24T10:55:47;24.10;52.20
5192;DHT22;2615;44.524;11.284;2023-04-24T10:58:16;24.40;51.90
5192;DHT22;2615;44.524;11.284;2023-04-24T11:00:48;24.70;51.60
5192;DHT22;2615;44.524;11.284;2023-04-24T11:03:24;25.00;51.20
5192;DHT22;2615;44.524;11.284;2023-04-24T11:05:56;25.30;50.80
5192;DHT22;2615;44.524;11.284;2023-04-24T11:08:29;25.70;50.30
5192;DHT22;2615;44.524;11.284;2023-04-24T11:11:01;25.90;49.80
5192;DHT22;2615;44.524;11.284;2023-04-24T11:14:01;26.20;49.50
5192;DHT22;2615;44.524;11.284;2023-04-24T11:16:30;26.50;48.60
5192;DHT22;2615;44.524;11.284;2023-04-24T11:19:02;26.70;48.40
5192;DHT22;2615;44.524;11.284;2023-04-24T11:21:41;27.00;48.10
5192;DHT22;2615;44.524;11.284;2023-04-24T11:24:24;27.20;47.10
5192;DHT22;2615;44.524;11.284;2023-04-24T11:26:54;27.10;46.50
5192;DHT22;2615;44.524;11.284;2023-04-24T11:29:29;26.90;46.70
5192;DHT22;2615;44.524;11.284;2023-04-24T11:32:15;26.80;46.40
5192;DHT22;2615;44.524;11.284;2023-04-24T11:34:49;26.60;46.70
5192;DHT22;2615;44.524;11.284;2023-04-24T11:37:17;26.60;46.70
5192;DHT22;2615;44.524;11.284;2023-04-24T11:39:45;26.60;46.50
5192;DHT22;2615;44.524;11.284;2023-04-24T11:42:16;26.70;46.40
5192;DHT22;2615;44.524;11.284;2023-04-24T11:44:44;26.90;46.00
5192;DHT22;2615;44.524;11.284;2023-04-24T11:47:14;27.00;45.80
5192;DHT22;2615;44.524;11.284;2023-04-24T11:49:42;27.10;45.50
5192;DHT22;2615;44.524;11.284;2023-04-24T11:52:10;27.20;45.10
5192;DHT22;2615;44.524;11.284;2023-04-24T11:54:47;27.50;44.90
5192;DHT22;2615;44.524;11.284;2023-04-24T11:57:19;27.70;44.30
5192;DHT22;2615;44.524;11.284;2023-04-24T11:59:49;27.90;44.10
5192;DHT22;2615;44.524;11.284;2023-04-24T12:02:24;28.20;43.80
5192;DHT22;2615;44.524;11.284;2023-04-24T12:04:53;28.50;43.10
5192;DHT22;2615;44.524;11.284;2023-04-24T12:07:23;28.60;43.00
5192;DHT22;2615;44.524;11.284;2023-04-24T12:09:56;28.80;42.90
5192;DHT22;2615;44.524;11.284;2023-04-24T12:12:27;29.00;42.50
5192;DHT22;2615;44.524;11.284;2023-04-24T12:14:57;29.40;42.30
5192;DHT22;2615;44.524;11.284;2023-04-24T12:17:27;29.60;41.70
5192;DHT22;2615;44.524;11.284;2023-04-24T12:19:58;29.70;41.10
5192;DHT22;2615;44.524;11.284;2023-04-24T12:22:27;29.60;40.90
5192;DHT22;2615;44.524;11.284;2023-04-24T12:24:56;29.50;40.90
5192;DHT22;2615;44.524;11.284;2023-04-24T12:27:28;29.40;40.80
5192;DHT22;2615;44.524;11.284;2023-04-24T12:29:57;29.30;40.70
5192;DHT22;2615;44.524;11.284;2023-04-24T12:32:26;29.00;40.80
5192;DHT22;2615;44.524;11.284;2023-04-24T12:34:55;28.60;40.90
5192;DHT22;2615;44.524;11.284;2023-04-24T12:37:24;28.20;41.30
5192;DHT22;2615;44.524;11.284;2023-04-24T12:39:59;27.80;41.70
5192;DHT22;2615;44.524;11.284;2023-04-24T12:42:30;27.50;42.10
5192;DHT22;2615;44.524;11.284;2023-04-24T12:45:00;27.20;42.20
5192;DHT22;2615;44.524;11.284;2023-04-24T12:47:29;26.80;42.00
5192;DHT22;2615;44.524;11.284;2023-04-24T12:49:57;26.50;42.30
5192;DHT22;2615;44.524;11.284;2023-04-24T12:52:26;26.20;42.50
5192;DHT22;2615;44.524;11.284;2023-04-24T12:54:56;26.00;42.80
5192;DHT22;2615;44.524;11.284;2023-04-24T12:57:25;25.80;42.90
5192;DHT22;2615;44.524;11.284;2023-04-24T12:59:55;25.60;43.20
5192;DHT22;2615;44.524;11.284;2023-04-24T13:02:24;25.50;43.40
5192;DHT22;2615;44.524;11.284;2023-04-24T13:04:53;25.30;43.60
5192;DHT22;2615;44.524;11.284;2023-04-24T13:07:21;25.20;43.70
5192;DHT22;2615;44.524;11.284;2023-04-24T13:09:50;25.10;43.60
5192;DHT22;2615;44.524;11.284;2023-04-24T13:12:19;24.90;43.40
5192;DHT22;2615;44.524;11.284;2023-04-24T13:14:47;24.80;43.60
5192;DHT22;2615;44.524;11.284;2023-04-24T13:17:17;24.70;43.70
5192;DHT22;2615;44.524;11.284;2023-04-24T13:19:46;24.60;43.60
5192;DHT22;2615;44.524;11.284;2023-04-24T13:22:14;24.40;43.60
5192;DHT22;2615;44.524;11.284;2023-04-24T13:24:42;24.30;43.70
5192;DHT22;2615;44.524;11.284;2023-04-24T13:27:10;24.20;44.00
5192;DHT22;2615;44.524;11.284;2023-04-24T13:29:38;24.20;44.20
5192;DHT22;2615;44.524;11.284;2023-04-24T13:32:08;24.10;44.20
5192;DHT22;2615;44.524;11.284;2023-04-24T13:34:37;24.10;44.30
5192;DHT22;2615;44.524;11.284;2023-04-24T13:37:05;24.10;44.20
5192;DHT22;2615;44.524;11.284;2023-04-24T13:39:34;24.00;44.00
5192;DHT22;2615;44.524;11.284;2023-04-24T13:42:03;23.90;43.80
5192;DHT22;2615;44.524;11.284;2023-04-24T13:44:31;23.90;43.70
5192;DHT22;2615;44.524;11.284;2023-04-24T13:46:59;23.80;43.70
5192;DHT22;2615;44.524;11.284;2023-04-24T13:49:28;23.80;43.70
5192;DHT22;2615;44.524;11.284;2023-04-24T13:51:58;23.80;43.90
5192;DHT22;2615;44.524;11.284;2023-04-24T13:54:26;23.80;43.90
5192;DHT22;2615;44.524;11.284;2023-04-24T13:56:57;23.90;43.90
5192;DHT22;2615;44.524;11.284;2023-04-24T13:59:25;23.80;43.60
5192;DHT22;2615;44.524;11.284;2023-04-24T14:01:53;23.70;43.50
5192;DHT22;2615;44.524;11.284;2023-04-24T14:04:22;23.70;43.60
5192;DHT22;2615;44.524;11.284;2023-04-24T14:06:51;23.70;43.70
5192;DHT22;2615;44.524;11.284;2023-04-24T14:09:20;23.70;43.60
5192;DHT22;2615;44.524;11.284;2023-04-24T14:11:48;23.70;43.20
5192;DHT22;2615;44.524;11.284;2023-04-24T14:14:16;23.70;43.10
5192;DHT22;2615;44.524;11.284;2023-04-24T14:16:45;23.60;43.20
5192;DHT22;2615;44.524;11.284;2023-04-24T14:19:13;23.60;43.30
5192;DHT22;2615;44.524;11.284;2023-04-24T14:21:41;23.50;43.40
5192;DHT22;2615;44.524;11.284;2023-04-24T14:24:09;23.40;43.20
5192;DHT22;2615;44.524;11.284;2023-04-24T14:26:38;23.40;43.10
5192;DHT22;2615;44.524;11.284;2023-04-24T14:29:06;23.40;43.00
5192;DHT22;2615;44.524;11.284;2023-04-24T14:31:41;23.40;43.10
5192;DHT22;2615;44.524;11.284;2023-04-24T14:34:09;23.40;43.20
5192;DHT22;2615;44.524;11.284;2023-04-24T14:36:38;23.50;43.30
5192;DHT22;2615;44.524;11.284;2023-04-24T14:39:06;23.40;43.10
5192;DHT22;2615;44.524;11.284;2023-04-24T14:41:34;23.40;43.10
5192;DHT22;2615;44.524;11.284;2023-04-24T14:44:05;23.30;43.00
5192;DHT22;2615;44.524;11.284;2023-04-24T14:46:33;23.20;43.10
5192;DHT22;2615;44.524;11.284;2023-04-24T14:49:01;23.20;43.20
5192;DHT22;2615;44.524;11.284;2023-04-24T14:51:29;23.10;43.10
5192;DHT22;2615;44.524;11.284;2023-04-24T14:53:58;23.10;43.10
5192;DHT22;2615;44.524;11.284;2023-04-24T14:56:26;23.10;43.10
5192;DHT22;2615;44.524;11.284;2023-04-24T14:58:55;23.10;43.10
5192;DHT22;2615;44.524;11.284;2023-04-24T15:01:24;23.10;43.00
5192;DHT22;2615;44.524;11.284;2023-04-24T15:03:52;23.10;43.10
5192;DHT22;2615;44.524;11.284;2023-04-24T15:06:21;23.10;43.30
5192;DHT22;2615;44.524;11.284;2023-04-24T15:08:49;23.00;43.20
5192;DHT22;2615;44.524;11.284;2023-04-24T15:11:17;23.00;43.30
5192;DHT22;2615;44.524;11.284;2023-04-24T15:13:45;23.10;43.50
5192;DHT22;2615;44.524;11.284;2023-04-24T15:16:14;23.10;43.40
5192;DHT22;2615;44.524;11.284;2023-04-24T15:18:44;23.10;43.50
5192;DHT22;2615;44.524;11.284;2023-04-24T15:21:12;23.10;43.60
5192;DHT22;2615;44.524;11.284;2023-04-24T15:23:40;23.10;43.60
5192;DHT22;2615;44.524;11.284;2023-04-24T15:26:08;23.10;44.30
5192;DHT22;2615;44.524;11.284;2023-04-24T15:28:36;23.20;43.90
5192;DHT22;2615;44.524;11.284;2023-04-24T15:31:05;23.20;44.00
5192;DHT22;2615;44.524;11.284;2023-04-24T15:33:33;23.30;44.00
5192;DHT22;2615;44.524;11.284;2023-04-24T15:36:02;23.40;44.10
5192;DHT22;2615;44.524;11.284;2023-04-24T15:38:31;23.40;43.90
5192;DHT22;2615;44.524;11.284;2023-04-24T15:40:59;23.40;43.90
5192;DHT22;2615;44.524;11.284;2023-04-24T15:43:27;23.20;43.80
5192;DHT22;2615;44.524;11.284;2023-04-24T15:45:57;23.10;43.90
5192;DHT22;2615;44.524;11.284;2023-04-24T15:48:26;23.10;44.20
5192;DHT22;2615;44.524;11.284;2023-04-24T15:50:55;23.10;44.40
5192;DHT22;2615;44.524;11.284;2023-04-24T15:53:24;23.00;44.60
5192;DHT22;2615;44.524;11.284;2023-04-24T15:55:52;23.00;44.90
5192;DHT22;2615;44.524;11.284;2023-04-24T15:58:22;22.90;44.90
5192;DHT22;2615;44.524;11.284;2023-04-24T16:00:51;22.90;44.90
5192;DHT22;2615;44.524;11.284;2023-04-24T16:03:20;22.90;45.10